Time;durP1;ratioP1;P1;durP2;ratioP2;P2;SDS_P1;SDS_P2;PMS_P1;PMS_P2;Temp;Humidity;BMP_temperature;BMP_pressure;BME280_temperature;BME280_humidity;BME280_pressure;Samples;Min_cycle;Max_cycle;Signal;HPM_P1;HPM_P2
2021/10/15 00:04:11;;;;;;;0.10;0.10;;;;;;;;;;10439467;28;20043;-64
2021/10/15 00:09:14;;;;;;;0.00;0.00;;;;;;;;;;10433060;28;20160;-64
2021/10/15 00:14:17;;;;;;;0.00;0.00;;;;;;;;;;10439340;28;20045;-64
2021/10/15 00:19:21;;;;;;;0.10;0.10;;;;;;;;;;10437963;28;20055;-64
2021/10/15 00:24:25;;;;;;;0.10;0.10;;;;;;;;;;10437390;28;20049;-64
2021/10/15 00:29:28;;;;;;;0.10;0.10;;;;;;;;;;10439216;28;20045;-64
2021/10/15 00:34:32;;;;;;;0.10;0.10;;;;;;;;;;10436521;28;20135;-64
2021/10/15 00:39:34;;;;;;;0.10;0.10;;;;;;;;;;10438127;28;20055;-64
2021/10/15 00:44:37;;;;;;;0.00;0.00;;;;;;;;;;10450952;28;20049;-64
2021/10/15 00:49:42;;;;;;;0.10;0.10;;;;;;;;;;10438691;28;20110;-64
2021/10/15 00:54:47;;;;;;;0.10;0.10;;;;;;;;;;10437270;28;20476;-64
2021/10/15 00:59:50;;;;;;;0.03;0.03;;;;;;;;;;10438607;28;20056;-64
2021/10/15 01:04:56;;;;;;;0.10;0.10;;;;;;;;;;10439716;28;20673;-64
2021/10/15 01:09:59;;;;;;;0.10;0.10;;;;;;;;;;10439682;28;20132;-64
2021/10/15 01:15:02;;;;;;;0.00;0.00;;;;;;;;;;10444771;28;20051;-63
2021/10/15 01:20:07;;;;;;;0.10;0.10;;;;;;;;;;10444987;28;20131;-63
2021/10/15 01:25:10;;;;;;;0.10;0.10;;;;;;;;;;10445784;28;20119;-64
2021/10/15 01:30:12;;;;;;;0.10;0.10;;;;;;;;;;10440135;28;20049;-63
2021/10/15 01:35:17;;;;;;;0.10;0.10;;;;;;;;;;10445331;28;20045;-63
2021/10/15 01:40:19;;;;;;;0.10;0.10;;;;;;;;;;10444879;28;20037;-63
2021/10/15 01:45:22;;;;;;;0.10;0.10;;;;;;;;;;10443118;28;20043;-63
2021/10/15 01:50:27;;;;;;;0.10;0.10;;;;;;;;;;10444456;28;20124;-63
2021/10/15 01:55:30;;;;;;;0.10;0.10;;;;;;;;;;10444215;28;20047;-63
2021/10/15 02:00:33;;;;;;;0.10;0.10;;;;;;;;;;10443785;28;20047;-63
2021/10/15 02:05:37;;;;;;;0.40;0.03;;;;;;;;;;10443198;28;20497;-63
2021/10/15 02:10:40;;;;;;;0.00;0.00;;;;;;;;;;10440651;28;20041;-63
2021/10/15 02:15:43;;;;;;;0.00;0.00;;;;;;;;;;10441270;28;20491;-63
2021/10/15 02:20:47;;;;;;;0.10;0.10;;;;;;;;;;10434193;28;20474;-63
2021/10/15 02:25:52;;;;;;;0.08;0.08;;;;;;;;;;10443631;28;20376;-63
2021/10/15 02:30:54;;;;;;;0.10;0.10;;;;;;;;;;10439707;28;20045;-63
2021/10/15 02:35:59;;;;;;;0.08;0.08;;;;;;;;;;10443032;28;20041;-63
2021/10/15 02:41:02;;;;;;;0.10;0.10;;;;;;;;;;10440936;28;20037;-63
2021/10/15 02:46:04;;;;;;;0.10;0.10;;;;;;;;;;10441517;28;20044;-63
2021/10/15 02:51:09;;;;;;;0.10;0.10;;;;;;;;;;10440400;28;20498;-63
2021/10/15 02:56:12;;;;;;;0.10;0.10;;;;;;;;;;10442431;28;20052;-63
2021/10/15 03:01:14;;;;;;;0.00;0.00;;;;;;;;;;10440300;28;20065;-64
2021/10/15 03:06:19;;;;;;;0.10;0.10;;;;;;;;;;10441971;28;20072;-64
2021/10/15 03:11:22;;;;;;;0.10;0.10;;;;;;;;;;10439548;28;20045;-64
2021/10/15 03:16:25;;;;;;;0.10;0.10;;;;;;;;;;10441297;28;20418;-63
2021/10/15 03:21:30;;;;;;;0.10;0.10;;;;;;;;;;10435460;28;20486;-64
2021/10/15 03:26:32;;;;;;;0.10;0.10;;;;;;;;;;10440638;28;20049;-63
2021/10/15 03:31:35;;;;;;;0.00;0.00;;;;;;;;;;10439080;28;20041;-63
2021/10/15 03:36:39;;;;;;;0.00;0.00;;;;;;;;;;10440673;28;20053;-63
2021/10/15 03:41:42;;;;;;;0.10;0.10;;;;;;;;;;10438101;28;20041;-63
2021/10/15 03:46:45;;;;;;;0.10;0.10;;;;;;;;;;10435566;28;20045;-64
2021/10/15 03:51:49;;;;;;;0.10;0.10;;;;;;;;;;10439298;28;20045;-64
2021/10/15 03:56:53;;;;;;;0.10;0.10;;;;;;;;;;10435027;28;20045;-63
2021/10/15 04:01:56;;;;;;;0.10;0.10;;;;;;;;;;10436923;28;20047;-63
2021/10/15 04:07:00;;;;;;;0.10;0.10;;;;;;;;;;10438491;28;20953;-63
2021/10/15 04:12:04;;;;;;;0.10;0.10;;;;;;;;;;10436058;28;20046;-64
2021/10/15 04:17:06;;;;;;;0.10;0.10;;;;;;;;;;10435896;28;20044;-63
2021/10/15 04:22:11;;;;;;;0.10;0.10;;;;;;;;;;10435530;28;20840;-64
2021/10/15 04:27:14;;;;;;;0.10;0.10;;;;;;;;;;10433599;28;20481;-63
2021/10/15 04:32:16;;;;;;;0.10;0.10;;;;;;;;;;10434346;28;20051;-63
2021/10/15 04:37:21;;;;;;;0.10;0.10;;;;;;;;;;10432869;28;20480;-63
2021/10/15 04:42:23;;;;;;;0.10;0.10;;;;;;;;;;10434775;28;20064;-63
2021/10/15 04:47:27;;;;;;;0.10;0.10;;;;;;;;;;10435641;28;20128;-63
2021/10/15 04:52:31;;;;;;;0.10;0.10;;;;;;;;;;10434334;28;20047;-64
2021/10/15 04:57:34;;;;;;;0.10;0.10;;;;;;;;;;10432314;28;20048;-63
2021/10/15 05:02:38;;;;;;;0.10;0.10;;;;;;;;;;10433575;28;20043;-63
2021/10/15 05:07:42;;;;;;;0.10;0.10;;;;;;;;;;10435773;28;20056;-63
2021/10/15 05:12:45;;;;;;;0.10;0.10;;;;;;;;;;10433861;28;20045;-63
2021/10/15 05:17:48;;;;;;;0.10;0.10;;;;;;;;;;10433596;28;20041;-63
2021/10/15 05:22:52;;;;;;;0.00;0.00;;;;;;;;;;10433652;28;20042;-63
2021/10/15 05:27:55;;;;;;;0.10;0.10;;;;;;;;;;10433927;28;20240;-63
2021/10/15 05:32:58;;;;;;;0.10;0.10;;;;;;;;;;10430862;28;20065;-63
2021/10/15 05:38:03;;;;;;;0.13;0.13;;;;;;;;;;10432852;28;20059;-65
2021/10/15 05:43:06;;;;;;;0.10;0.10;;;;;;;;;;10433743;28;20054;-64
2021/10/15 05:48:09;;;;;;;0.10;0.10;;;;;;;;;;10432073;28;20045;-64
2021/10/15 05:53:15;;;;;;;0.10;0.10;;;;;;;;;;10434610;28;20037;-64
2021/10/15 06:03:41;;;;;;;0.10;0.10;;;;;;;;;;10439558;28;20059;-64
2021/10/15 06:14:21;;;;;;;0.20;0.15;;;;;;;;;;10438544;28;20053;-63
2021/10/15 06:19:26;;;;;;;0.10;0.10;;;;;;;;;;10439926;28;20057;-62
2021/10/15 06:24:30;;;;;;;0.10;0.10;;;;;;;;;;10436517;28;20052;-61
2021/10/15 06:29:33;;;;;;;0.10;0.10;;;;;;;;;;10439490;28;20033;-65
2021/10/15 06:34:35;;;;;;;0.10;0.10;;;;;;;;;;10436682;28;20041;-63
2021/10/15 06:39:41;;;;;;;0.10;0.10;;;;;;;;;;10438089;28;20052;-65
2021/10/15 06:44:45;;;;;;;0.10;0.10;;;;;;;;;;10439306;28;20119;-64
2021/10/15 06:49:48;;;;;;;0.10;0.10;;;;;;;;;;10437956;28;20045;-65
2021/10/15 06:54:52;;;;;;;0.10;0.10;;;;;;;;;;10440052;28;21204;-65
2021/10/15 06:59:55;;;;;;;0.10;0.10;;;;;;;;;;10438897;28;20037;-65
2021/10/15 07:04:58;;;;;;;0.10;0.10;;;;;;;;;;10440163;28;20110;-64
2021/10/15 07:10:03;;;;;;;0.10;0.10;;;;;;;;;;10436490;28;20041;-64
2021/10/15 07:15:10;;;;;;;0.10;0.10;;;;;;;;;;10438543;28;20045;-66
2021/10/15 07:20:12;;;;;;;0.15;0.13;;;;;;;;;;10438663;28;20045;-65
2021/10/15 07:25:17;;;;;;;0.10;0.10;;;;;;;;;;10437758;28;20781;-65
2021/10/15 07:30:21;;;;;;;0.13;0.13;;;;;;;;;;10435286;28;20041;-65
2021/10/15 07:35:24;;;;;;;0.10;0.10;;;;;;;;;;10437132;28;20446;-66
2021/10/15 07:40:28;;;;;;;0.10;0.10;;;;;;;;;;10434290;28;20048;-65
2021/10/15 07:45:31;;;;;;;0.10;0.10;;;;;;;;;;10437703;28;20047;-65
2021/10/15 07:50:35;;;;;;;0.10;0.10;;;;;;;;;;10436628;28;20060;-65
2021/10/15 07:55:39;;;;;;;0.10;0.10;;;;;;;;;;10437836;28;20073;-65
2021/10/15 08:00:42;;;;;;;0.25;0.15;;;;;;;;;;10435769;28;20128;-65
2021/10/15 08:05:45;;;;;;;0.10;0.10;;;;;;;;;;10436751;28;20052;-65
2021/10/15 08:10:49;;;;;;;0.00;0.00;;;;;;;;;;10432825;28;20049;-65
2021/10/15 08:15:52;;;;;;;0.10;0.10;;;;;;;;;;10429709;28;20551;-65
2021/10/15 08:20:57;;;;;;;0.03;0.03;;;;;;;;;;10433346;28;20048;-65
2021/10/15 08:26:01;;;;;;;0.10;0.10;;;;;;;;;;10435238;28;20155;-65
2021/10/15 08:31:04;;;;;;;0.10;0.10;;;;;;;;;;10436274;28;20549;-65
2021/10/15 08:36:07;;;;;;;0.00;0.00;;;;;;;;;;10432990;28;20128;-65
2021/10/15 08:41:11;;;;;;;0.10;0.10;;;;;;;;;;10435823;28;20061;-65
2021/10/15 08:46:14;;;;;;;0.10;0.10;;;;;;;;;;10431194;28;20040;-65
2021/10/15 08:51:19;;;;;;;0.00;0.00;;;;;;;;;;10434999;28;20043;-65
2021/10/15 08:56:24;;;;;;;0.10;0.10;;;;;;;;;;10432202;28;20048;-66
2021/10/15 09:01:28;;;;;;;0.10;0.10;;;;;;;;;;10432182;28;20044;-65
2021/10/15 09:06:35;;;;;;;0.00;0.00;;;;;;;;;;10434018;28;20461;-65
2021/10/15 09:11:39;;;;;;;0.10;0.10;;;;;;;;;;10436642;28;20041;-65
2021/10/15 09:16:56;;;;;;;0.10;0.10;;;;;;;;;;10434801;28;20497;-65
2021/10/15 09:22:06;;;;;;;0.00;0.00;;;;;;;;;;10434342;28;20479;-65
2021/10/15 09:27:14;;;;;;;0.00;0.00;;;;;;;;;;10437180;28;20148;-65
2021/10/15 09:32:17;;;;;;;0.10;0.10;;;;;;;;;;10440943;28;20423;-65
2021/10/15 09:37:21;;;;;;;0.10;0.10;;;;;;;;;;10444574;28;20510;-65
2021/10/15 09:42:27;;;;;;;0.10;0.10;;;;;;;;;;10445965;28;20148;-65
2021/10/15 09:47:30;;;;;;;0.00;0.00;;;;;;;;;;10442049;28;20056;-64
2021/10/15 09:52:35;;;;;;;0.00;0.00;;;;;;;;;;10445089;28;20501;-64
2021/10/15 09:57:40;;;;;;;0.10;0.10;;;;;;;;;;10444387;28;20041;-64
2021/10/15 10:02:42;;;;;;;0.03;0.03;;;;;;;;;;10445030;28;20040;-63
2021/10/15 10:07:46;;;;;;;0.10;0.10;;;;;;;;;;10443052;28;20059;-63
2021/10/15 10:12:52;;;;;;;0.00;0.00;;;;;;;;;;10445045;28;20087;-64
2021/10/15 10:17:58;;;;;;;0.00;0.00;;;;;;;;;;10443347;28;20056;-64
2021/10/15 10:23:12;;;;;;;1.95;0.10;;;;;;;;;;10438457;28;20045;-64
2021/10/15 10:28:19;;;;;;;0.10;0.10;;;;;;;;;;10441655;28;20072;-64
2021/10/15 10:33:22;;;;;;;0.10;0.10;;;;;;;;;;10442216;28;20169;-62
2021/10/15 10:38:27;;;;;;;0.10;0.10;;;;;;;;;;10441747;28;20040;-62
2021/10/15 10:43:55;;;;;;;0.00;0.00;;;;;;;;;;10439794;28;20464;-62
2021/10/15 10:49:16;;;;;;;0.00;0.00;;;;;;;;;;10441689;28;20238;-62
2021/10/15 10:54:29;;;;;;;0.10;0.10;;;;;;;;;;10439695;28;20060;-62
2021/10/15 10:59:32;;;;;;;0.10;0.10;;;;;;;;;;10440658;28;20045;-62
2021/10/15 11:04:36;;;;;;;0.10;0.10;;;;;;;;;;10440496;28;20059;-62
2021/10/15 11:09:42;;;;;;;0.10;0.10;;;;;;;;;;10441110;28;20098;-65
2021/10/15 11:14:50;;;;;;;0.10;0.10;;;;;;;;;;10455440;28;20196;-62
2021/10/15 11:20:23;;;;;;;0.10;0.10;;;;;;;;;;10436400;28;20067;-63
2021/10/15 11:25:31;;;;;;;0.00;0.00;;;;;;;;;;10386360;28;20063;-62
2021/10/15 11:30:35;;;;;;;0.00;0.00;;;;;;;;;;10440863;28;20045;-62
2021/10/15 11:35:38;;;;;;;0.10;0.10;;;;;;;;;;10439700;28;20043;-62
2021/10/15 11:40:43;;;;;;;0.00;0.00;;;;;;;;;;10438891;28;20087;-62
2021/10/15 11:45:47;;;;;;;0.10;0.10;;;;;;;;;;10439879;28;20047;-62
2021/10/15 11:50:51;;;;;;;0.10;0.10;;;;;;;;;;10440336;28;20057;-63
2021/10/15 11:55:55;;;;;;;0.08;0.08;;;;;;;;;;10432907;28;20083;-63
2021/10/15 12:01:07;;;;;;;0.10;0.10;;;;;;;;;;10436792;28;20426;-63
2021/10/15 12:06:14;;;;;;;0.10;0.10;;;;;;;;;;10438134;28;20048;-63
2021/10/15 12:11:20;;;;;;;0.00;0.00;;;;;;;;;;10436987;28;20352;-63
2021/10/15 12:16:24;;;;;;;0.00;0.00;;;;;;;;;;10435803;28;20139;-63
2021/10/15 12:21:31;;;;;;;0.10;0.10;;;;;;;;;;10436735;28;20558;-63
2021/10/15 12:26:36;;;;;;;0.10;0.10;;;;;;;;;;10435696;28;20049;-63
2021/10/15 12:31:39;;;;;;;0.00;0.00;;;;;;;;;;10437407;28;20037;-63
2021/10/15 12:36:42;;;;;;;0.00;0.00;;;;;;;;;;10437058;28;20061;-63
2021/10/15 12:41:47;;;;;;;0.00;0.00;;;;;;;;;;10438465;28;20498;-63
2021/10/15 12:46:57;;;;;;;0.10;0.10;;;;;;;;;;10437432;28;20067;-62
2021/10/15 12:52:00;;;;;;;0.00;0.00;;;;;;;;;;10437750;28;20049;-63
2021/10/15 12:57:10;;;;;;;0.10;0.10;;;;;;;;;;10437082;28;20044;-63
2021/10/15 13:02:12;;;;;;;0.00;0.00;;;;;;;;;;10435186;28;20307;-63
2021/10/15 13:07:15;;;;;;;0.10;0.10;;;;;;;;;;10442598;28;20049;-63
2021/10/15 13:12:22;;;;;;;0.00;0.00;;;;;;;;;;10446707;28;20052;-63
2021/10/15 13:17:24;;;;;;;0.00;0.00;;;;;;;;;;10443600;28;20049;-63
2021/10/15 13:22:27;;;;;;;0.10;0.10;;;;;;;;;;10445450;28;20052;-63
2021/10/15 13:27:32;;;;;;;0.10;0.10;;;;;;;;;;10443806;28;20111;-63
2021/10/15 13:32:34;;;;;;;0.10;0.10;;;;;;;;;;10443382;28;20051;-63
2021/10/15 13:37:39;;;;;;;0.05;0.05;;;;;;;;;;10443795;28;20055;-63
2021/10/15 13:43:11;;;;;;;0.10;0.10;;;;;;;;;;10443994;28;20954;-63
2021/10/15 13:53:37;;;;;;;0.05;0.05;;;;;;;;;;10445645;28;20051;-64
2021/10/15 13:58:43;;;;;;;0.10;0.10;;;;;;;;;;10444107;28;20040;-65
2021/10/15 14:09:14;;;;;;;0.15;0.10;;;;;;;;;;10441903;28;20048;-65
2021/10/15 14:14:18;;;;;;;0.10;0.10;;;;;;;;;;10443523;28;20509;-65
2021/10/15 14:19:21;;;;;;;0.10;0.10;;;;;;;;;;10442261;28;20056;-63
2021/10/15 14:24:24;;;;;;;0.08;0.08;;;;;;;;;;10441300;28;20045;-65
2021/10/15 14:29:29;;;;;;;0.00;0.00;;;;;;;;;;10441379;28;20045;-65
2021/10/15 14:34:31;;;;;;;0.10;0.10;;;;;;;;;;10441652;28;20041;-65
2021/10/15 14:39:34;;;;;;;0.10;0.10;;;;;;;;;;10440828;28;20047;-65
2021/10/15 14:44:47;;;;;;;0.10;0.10;;;;;;;;;;10440389;28;20525;-65
2021/10/15 14:49:51;;;;;;;0.10;0.10;;;;;;;;;;10439781;28;20450;-65
2021/10/15 14:54:54;;;;;;;0.15;0.15;;;;;;;;;;10439289;28;20041;-64
2021/10/15 14:59:59;;;;;;;0.10;0.10;;;;;;;;;;10437037;28;20051;-64
2021/10/15 15:05:02;;;;;;;0.10;0.10;;;;;;;;;;10436733;28;20128;-65
2021/10/15 15:10:08;;;;;;;0.10;0.10;;;;;;;;;;10436798;28;20068;-65
2021/10/15 15:15:12;;;;;;;0.00;0.00;;;;;;;;;;10440284;28;20057;-64
2021/10/15 15:20:15;;;;;;;0.00;0.00;;;;;;;;;;10440029;28;20063;-65
2021/10/15 15:25:19;;;;;;;0.05;0.05;;;;;;;;;;10439852;28;20037;-65
2021/10/15 15:30:25;;;;;;;0.05;0.05;;;;;;;;;;10455116;28;20048;-65
2021/10/15 15:35:31;;;;;;;0.10;0.10;;;;;;;;;;10434922;28;20048;-65
2021/10/15 15:40:35;;;;;;;0.10;0.10;;;;;;;;;;10435756;28;20111;-65
2021/10/15 15:45:42;;;;;;;0.00;0.00;;;;;;;;;;10438456;28;20061;-65
2021/10/15 15:50:45;;;;;;;0.10;0.10;;;;;;;;;;10436642;28;20041;-66
2021/10/15 15:55:49;;;;;;;0.10;0.10;;;;;;;;;;10439554;28;20752;-65
2021/10/15 16:00:53;;;;;;;0.10;0.10;;;;;;;;;;10437959;28;20041;-65
2021/10/15 16:05:56;;;;;;;0.05;0.05;;;;;;;;;;10436962;28;20048;-66
2021/10/15 16:10:58;;;;;;;0.10;0.10;;;;;;;;;;10439033;28;20099;-66
2021/10/15 16:16:03;;;;;;;0.10;0.10;;;;;;;;;;10436410;28;20131;-65
2021/10/15 16:21:06;;;;;;;0.10;0.10;;;;;;;;;;10438232;28;20063;-67
2021/10/15 16:26:08;;;;;;;0.10;0.10;;;;;;;;;;10435986;28;20041;-65
2021/10/15 16:31:13;;;;;;;0.10;0.10;;;;;;;;;;10436751;28;20485;-75
2021/10/15 16:36:17;;;;;;;0.10;0.10;;;;;;;;;;10435243;28;20045;-66
2021/10/15 16:41:20;;;;;;;0.10;0.10;;;;;;;;;;10435938;28;20065;-66
2021/10/15 16:46:25;;;;;;;0.10;0.10;;;;;;;;;;10433371;28;20052;-64
2021/10/15 16:51:27;;;;;;;0.08;0.08;;;;;;;;;;10434449;28;20152;-64
2021/10/15 16:56:32;;;;;;;0.10;0.10;;;;;;;;;;10435976;28;20045;-64
2021/10/15 17:01:38;;;;;;;0.03;0.03;;;;;;;;;;10434644;28;20894;-65
2021/10/15 17:06:42;;;;;;;0.10;0.10;;;;;;;;;;10434231;28;20057;-66
2021/10/15 17:11:45;;;;;;;0.10;0.10;;;;;;;;;;10435224;28;20053;-66
2021/10/15 17:16:49;;;;;;;0.10;0.10;;;;;;;;;;10433155;28;20131;-66
2021/10/15 17:21:53;;;;;;;0.10;0.10;;;;;;;;;;10434504;28;20139;-65
2021/10/15 17:26:57;;;;;;;0.10;0.10;;;;;;;;;;10436348;28;20885;-64
2021/10/15 17:32:01;;;;;;;0.10;0.10;;;;;;;;;;10434169;28;20410;-64
2021/10/15 17:37:04;;;;;;;0.10;0.10;;;;;;;;;;10432603;28;20892;-65
2021/10/15 17:42:08;;;;;;;0.10;0.10;;;;;;;;;;10436874;28;20076;-64
2021/10/15 17:47:13;;;;;;;0.10;0.10;;;;;;;;;;10435379;28;20051;-64
2021/10/15 17:52:21;;;;;;;0.10;0.10;;;;;;;;;;10438019;28;20135;-64
2021/10/15 17:57:24;;;;;;;0.10;0.10;;;;;;;;;;10444714;28;20039;-64
2021/10/15 18:02:28;;;;;;;0.10;0.10;;;;;;;;;;10441784;28;20059;-64
2021/10/15 18:07:31;;;;;;;0.10;0.10;;;;;;;;;;10440873;28;20033;-65
2021/10/15 18:12:34;;;;;;;0.10;0.10;;;;;;;;;;10443456;28;20052;-65
2021/10/15 18:17:38;;;;;;;0.10;0.10;;;;;;;;;;10440225;28;20053;-65
2021/10/15 18:22:43;;;;;;;0.10;0.10;;;;;;;;;;10440843;28;20512;-65
2021/10/15 18:27:45;;;;;;;0.10;0.10;;;;;;;;;;10441172;28;20049;-64
2021/10/15 18:32:50;;;;;;;0.10;0.10;;;;;;;;;;10442084;28;20053;-63
2021/10/15 18:37:53;;;;;;;0.10;0.10;;;;;;;;;;10440330;28;20049;-63
2021/10/15 18:42:56;;;;;;;0.10;0.10;;;;;;;;;;10443027;28;20048;-65
2021/10/15 18:48:00;;;;;;;0.20;0.20;;;;;;;;;;10437744;28;20053;-65
2021/10/15 18:53:03;;;;;;;0.10;0.10;;;;;;;;;;10441111;28;20044;-65
2021/10/15 18:58:06;;;;;;;0.10;0.10;;;;;;;;;;10437332;28;20479;-65
2021/10/15 19:03:10;;;;;;;0.10;0.10;;;;;;;;;;10438539;28;20071;-65
2021/10/15 19:08:13;;;;;;;0.10;0.10;;;;;;;;;;10438665;28;20048;-64
2021/10/15 19:13:16;;;;;;;0.10;0.10;;;;;;;;;;10438773;28;20045;-66
2021/10/15 19:18:20;;;;;;;0.10;0.10;;;;;;;;;;10437402;28;20049;-64
2021/10/15 19:23:26;;;;;;;0.10;0.10;;;;;;;;;;10437359;28;20043;-64
2021/10/15 19:28:29;;;;;;;0.10;0.10;;;;;;;;;;10434027;28;20059;-64
2021/10/15 19:33:33;;;;;;;0.10;0.10;;;;;;;;;;10439608;28;20135;-64
2021/10/15 19:38:36;;;;;;;0.10;0.10;;;;;;;;;;10435001;28;20479;-64
2021/10/15 19:43:41;;;;;;;0.10;0.10;;;;;;;;;;10437876;28;20036;-64
2021/10/15 19:48:45;;;;;;;0.10;0.10;;;;;;;;;;10434259;28;20590;-64
2021/10/15 19:53:48;;;;;;;0.20;0.20;;;;;;;;;;10437522;28;20045;-64
2021/10/15 19:58:51;;;;;;;0.10;0.10;;;;;;;;;;10433759;28;20832;-64
2021/10/15 20:03:57;;;;;;;0.10;0.10;;;;;;;;;;10437715;28;20037;-64
2021/10/15 20:09:00;;;;;;;0.10;0.10;;;;;;;;;;10435868;28;20147;-65
2021/10/15 20:14:04;;;;;;;0.10;0.10;;;;;;;;;;10433389;28;20048;-66
2021/10/15 20:19:10;;;;;;;0.10;0.10;;;;;;;;;;10435013;28;20890;-66
2021/10/15 20:24:13;;;;;;;0.17;0.17;;;;;;;;;;10434378;28;20167;-66
2021/10/15 20:29:16;;;;;;;0.17;0.17;;;;;;;;;;10435636;28;20055;-66
2021/10/15 20:34:21;;;;;;;0.10;0.10;;;;;;;;;;10432369;28;20037;-66
2021/10/15 20:39:25;;;;;;;0.20;0.20;;;;;;;;;;10434384;28;20667;-66
2021/10/15 20:44:29;;;;;;;0.17;0.17;;;;;;;;;;10432523;28;20574;-66
2021/10/15 20:49:33;;;;;;;0.10;0.10;;;;;;;;;;10433924;28;20040;-65
2021/10/15 20:54:36;;;;;;;0.10;0.10;;;;;;;;;;10435940;28;20507;-65
2021/10/15 20:59:39;;;;;;;0.10;0.10;;;;;;;;;;10434436;28;20383;-65
2021/10/15 21:04:43;;;;;;;0.10;0.10;;;;;;;;;;10433514;28;20047;-65
2021/10/15 21:09:46;;;;;;;0.10;0.10;;;;;;;;;;10452325;28;20052;-66
2021/10/15 21:14:49;;;;;;;0.10;0.10;;;;;;;;;;10435856;28;20808;-66
2021/10/15 21:19:53;;;;;;;0.15;0.15;;;;;;;;;;10438246;28;20061;-65
2021/10/15 21:24:57;;;;;;;0.10;0.10;;;;;;;;;;10434626;28;20134;-65
2021/10/15 21:30:00;;;;;;;0.10;0.10;;;;;;;;;;10441985;28;20041;-64
2021/10/15 21:35:04;;;;;;;0.10;0.10;;;;;;;;;;10439424;28;20051;-65
2021/10/15 21:40:09;;;;;;;0.20;0.20;;;;;;;;;;10441169;28;20616;-65
2021/10/15 21:45:12;;;;;;;0.20;0.20;;;;;;;;;;10439965;28;20128;-65
2021/10/15 21:50:21;;;;;;;0.20;0.20;;;;;;;;;;10441808;28;20045;-65
2021/10/15 21:55:24;;;;;;;0.10;0.10;;;;;;;;;;10442735;28;20043;-65
2021/10/15 22:00:28;;;;;;;1.70;0.85;;;;;;;;;;10442631;28;20053;-65
2021/10/15 22:05:35;;;;;;;3.13;0.90;;;;;;;;;;10440731;28;20802;-65
2021/10/15 22:10:40;;;;;;;3.65;1.63;;;;;;;;;;10438441;28;20063;-65
2021/10/15 22:15:44;;;;;;;0.10;0.10;;;;;;;;;;10439635;28;20045;-65
2021/10/15 22:20:49;;;;;;;0.20;0.20;;;;;;;;;;10439303;28;20088;-65
2021/10/15 22:25:51;;;;;;;0.10;0.10;;;;;;;;;;10438975;28;20044;-64
2021/10/15 22:30:55;;;;;;;0.20;0.20;;;;;;;;;;10441267;28;20053;-64
2021/10/15 22:36:02;;;;;;;0.20;0.20;;;;;;;;;;10437671;28;20033;-64
2021/10/15 22:41:05;;;;;;;0.90;0.50;;;;;;;;;;10437085;28;20049;-64
2021/10/15 22:46:08;;;;;;;8.90;1.90;;;;;;;;;;10441553;28;20041;-64
2021/10/15 22:51:12;;;;;;;3.22;0.73;;;;;;;;;;10438563;28;20073;-64
2021/10/15 22:56:15;;;;;;;5.65;1.30;;;;;;;;;;10440664;28;20033;-65
2021/10/15 23:01:19;;;;;;;2.08;0.90;;;;;;;;;;10439842;28;20064;-65
2021/10/15 23:06:25;;;;;;;3.05;0.70;;;;;;;;;;10440540;28;20118;-65
2021/10/15 23:11:28;;;;;;;5.03;1.20;;;;;;;;;;10438081;28;20649;-65
2021/10/15 23:16:31;;;;;;;4.25;1.17;;;;;;;;;;10438970;28;20033;-65
2021/10/15 23:21:35;;;;;;;1.25;0.50;;;;;;;;;;10439516;28;20053;-65
2021/10/15 23:26:38;;;;;;;11.88;3.42;;;;;;;;;;10450779;28;20143;-65
2021/10/15 23:31:41;;;;;;;11.77;3.22;;;;;;;;;;10460679;28;20036;-65
2021/10/15 23:36:45;;;;;;;12.95;3.13;;;;;;;;;;10453444;28;20032;-65
2021/10/15 23:41:47;;;;;;;9.80;2.88;;;;;;;;;;10453195;28;20056;-65
2021/10/15 23:46:50;;;;;;;3.25;0.98;;;;;;;;;;10454223;28;20052;-65
2021/10/15 23:51:55;;;;;;;3.90;1.25;;;;;;;;;;10456708;28;20573;-65
2021/10/15 23:56:57;;;;;;;3.75;0.95;;;;;;;;;;10434898;28;20072;-65
